createdAt,value
2023-03-24T00:02:53.569Z,85.07
2023-03-24T00:08:02.274Z,85.04
2023-03-24T00:13:06.354Z,84.99
2023-03-24T00:18:11.112Z,85.24
2023-03-24T00:23:15.684Z,85.35
2023-03-24T00:28:18.704Z,85.49
2023-03-24T00:33:21.855Z,85.60
2023-03-24T00:38:25.223Z,85.46
2023-03-24T00:43:32.340Z,85.38
2023-03-24T00:48:38.461Z,85.30
2023-03-24T00:53:43.995Z,85.49
2023-03-24T00:58:47.180Z,85.89
2023-03-24T01:03:51.098Z,86.35
2023-03-24T01:08:55.026Z,86.33
2023-03-24T01:13:58.337Z,85.73
2023-03-24T01:19:01.538Z,85.30
2023-03-24T01:24:06.385Z,85.29
2023-03-24T01:29:10.415Z,85.33
2023-03-24T01:34:13.634Z,85.39
2023-03-24T01:39:17.342Z,85.67
2023-03-24T01:44:37.466Z,85.92
2023-03-24T01:49:49.362Z,86.06
2023-03-24T01:55:02.402Z,86.14
2023-03-24T02:00:14.353Z,86.47
2023-03-24T02:05:18.339Z,86.43
2023-03-24T02:10:24.389Z,86.47
2023-03-24T02:15:32.439Z,86.26
2023-03-24T02:21:09.151Z,86.54
2023-03-24T02:26:45.874Z,86.31
2023-03-24T02:32:25.419Z,86.29
2023-03-24T02:38:04.008Z,86.03
2023-03-24T02:43:31.425Z,85.30
2023-03-24T02:48:53.351Z,84.66
2023-03-24T02:54:15.937Z,84.38
2023-03-24T02:59:49.945Z,84.29
2023-03-24T03:05:23.262Z,84.39
2023-03-24T03:10:50.642Z,84.65
2023-03-24T03:16:04.436Z,84.81
2023-03-24T03:21:16.518Z,84.86
2023-03-24T03:26:26.992Z,84.99
2023-03-24T03:31:42.496Z,84.57
2023-03-24T03:37:11.518Z,84.69
2023-03-24T03:42:14.847Z,84.61
2023-03-24T03:47:19.168Z,84.85
2023-03-24T03:52:22.585Z,84.90
2023-03-24T03:57:27.105Z,85.02
2023-03-24T04:02:48.298Z,85.13
2023-03-24T04:08:17.462Z,85.04
2023-03-24T04:13:39.647Z,85.08
2023-03-24T04:19:28.282Z,85.04
2023-03-24T04:24:50.127Z,85.07
2023-03-24T04:30:30.404Z,85.13
2023-03-24T04:35:47.195Z,85.24
2023-03-24T04:40:55.789Z,85.32
2023-03-24T04:45:59.090Z,85.42
2023-03-24T04:51:04.328Z,85.57
2023-03-24T04:56:38.493Z,85.61
2023-03-24T05:01:50.298Z,85.57
2023-03-24T05:06:53.785Z,85.28
2023-03-24T05:11:58.066Z,85.00
2023-03-24T05:17:02.479Z,84.82
2023-03-24T05:22:05.977Z,85.03
2023-03-24T05:27:09.121Z,85.26
2023-03-24T05:32:13.625Z,85.50
2023-03-24T05:37:18.005Z,85.63
2023-03-24T05:42:21.475Z,85.39
2023-03-24T05:47:24.577Z,85.50
2023-03-24T05:52:29.051Z,85.60
2023-03-24T05:57:32.549Z,85.89
2023-03-24T06:02:35.941Z,85.89
2023-03-24T06:07:42.568Z,85.83
2023-03-24T06:12:46.353Z,85.82
2023-03-24T06:17:50.470Z,86.07
2023-03-24T06:22:59.226Z,85.90
2023-03-24T06:28:06.835Z,85.94
2023-03-24T06:33:11.429Z,85.75
2023-03-24T06:38:15.199Z,85.70
2023-03-24T06:43:18.320Z,85.74
2023-03-24T06:48:21.660Z,85.64
2023-03-24T06:53:24.833Z,85.86
2023-03-24T06:58:28.265Z,85.60
2023-03-24T07:03:31.905Z,85.17
2023-03-24T07:08:38.647Z,84.99
2023-03-24T07:13:42.585Z,84.89
2023-03-24T07:18:45.794Z,84.50
2023-03-24T07:23:49.440Z,84.13
2023-03-24T07:28:52.939Z,83.75
2023-03-24T07:33:56.151Z,83.29
2023-03-24T07:38:59.264Z,83.15
2023-03-24T07:44:02.963Z,82.83
2023-03-24T07:49:18.248Z,82.20
2023-03-24T07:54:22.401Z,82.20
2023-03-24T07:59:27.928Z,81.36
2023-03-24T08:04:32.828Z,81.32
2023-03-24T08:09:36.119Z,81.19
2023-03-24T08:14:39.826Z,80.67
2023-03-24T08:19:56.163Z,79.43
2023-03-24T08:25:02.522Z,77.87
2023-03-24T08:30:08.781Z,77.07
2023-03-24T08:35:14.980Z,76.82
2023-03-24T08:40:24.201Z,76.39
2023-03-24T08:45:31.941Z,76.18
2023-03-24T08:50:39.999Z,75.54
2023-03-24T08:55:44.602Z,74.72
2023-03-24T09:00:49.721Z,73.99
2023-03-24T09:05:57.560Z,72.31
2023-03-24T09:11:00.902Z,71.92
2023-03-24T09:16:04.722Z,71.22
2023-03-24T09:21:08.989Z,71.68
2023-03-24T09:26:12.685Z,71.72
2023-03-24T09:31:17.292Z,71.71
2023-03-24T09:36:21.533Z,72.81
2023-03-24T09:41:33.848Z,74.50
2023-03-24T09:46:47.630Z,75.60
2023-03-24T09:52:04.863Z,76.39
2023-03-24T09:57:26.587Z,77.14
2023-03-24T10:02:31.831Z,77.83
2023-03-24T10:07:50.070Z,78.38
2023-03-24T10:13:03.280Z,78.49
2023-03-24T10:18:12.257Z,78.39
2023-03-24T10:23:48.439Z,78.35
2023-03-24T10:29:07.258Z,77.71
2023-03-24T10:34:13.365Z,75.71
2023-03-24T10:39:22.441Z,74.14
2023-03-24T10:44:31.190Z,72.56
2023-03-24T10:49:34.649Z,72.09
2023-03-24T10:54:38.359Z,72.01
2023-03-24T11:00:14.770Z,71.67
2023-03-24T11:05:29.427Z,71.44
2023-03-24T11:10:32.632Z,70.80
2023-03-24T11:15:37.515Z,70.18
2023-03-24T11:20:46.830Z,69.89
2023-03-24T11:26:04.590Z,69.68
2023-03-24T11:31:12.135Z,69.88
2023-03-24T11:36:31.009Z,69.46
2023-03-24T11:41:38.082Z,69.25
2023-03-24T11:46:44.494Z,68.93
2023-03-24T11:51:53.930Z,68.29
2023-03-24T11:57:04.781Z,68.25
2023-03-24T12:02:07.902Z,67.43
2023-03-24T12:08:16.464Z,66.96
2023-03-24T12:13:44.169Z,67.35
2023-03-24T12:19:18.472Z,67.10
2023-03-24T12:24:47.071Z,66.81
2023-03-24T12:30:01.905Z,66.98
2023-03-24T12:35:27.102Z,67.10
2023-03-24T12:40:48.717Z,67.54
2023-03-24T12:45:56.112Z,67.88
2023-03-24T12:51:21.857Z,68.28
2023-03-24T12:56:36.869Z,68.30
2023-03-24T13:01:55.946Z,68.04
2023-03-24T13:07:11.678Z,67.45
2023-03-24T13:12:31.527Z,66.93
2023-03-24T13:17:49.217Z,66.31
2023-03-24T13:22:53.107Z,66.43
2023-03-24T13:28:04.714Z,66.86
2023-03-24T13:33:28.163Z,67.93
2023-03-24T13:38:42.562Z,69.86
2023-03-24T13:43:59.334Z,71.89
2023-03-24T13:49:07.314Z,73.27
2023-03-24T13:54:41.055Z,74.22
2023-03-24T14:00:22.045Z,74.90
2023-03-24T14:05:59.647Z,75.60
2023-03-24T14:11:02.970Z,76.48
2023-03-24T14:16:56.661Z,76.89
2023-03-24T14:22:15.037Z,77.30
2023-03-24T14:27:44.971Z,78.08
2023-03-24T14:32:56.701Z,79.02
2023-03-24T14:38:16.146Z,79.51
2023-03-24T14:43:28.587Z,79.19
2023-03-24T14:48:53.169Z,78.80
2023-03-24T14:53:58.528Z,78.44
2023-03-24T14:59:11.631Z,78.25
2023-03-24T15:04:15.030Z,78.14
2023-03-24T15:09:19.141Z,78.17
2023-03-24T15:14:25.731Z,78.22
2023-03-24T15:19:31.135Z,78.39
2023-03-24T15:24:38.320Z,78.56
2023-03-24T15:29:45.131Z,78.31
2023-03-24T15:34:56.819Z,78.17
2023-03-24T15:40:13.093Z,77.96
2023-03-24T15:45:30.125Z,77.70
2023-03-24T15:50:41.156Z,77.64
2023-03-24T15:55:44.517Z,77.55
2023-03-24T16:00:51.937Z,77.35
2023-03-24T16:05:57.484Z,77.16
2023-03-24T16:11:07.352Z,77.21
2023-03-24T16:16:13.514Z,77.11
2023-03-24T16:21:20.613Z,77.13
2023-03-24T16:26:32.337Z,77.01
2023-03-24T16:31:35.854Z,76.86
2023-03-24T16:36:39.104Z,76.87
2023-03-24T16:41:42.791Z,76.88
2023-03-24T16:46:47.940Z,76.78
2023-03-24T16:51:53.298Z,76.81
2023-03-24T16:56:56.577Z,76.93
2023-03-24T17:02:06.173Z,77.20
2023-03-24T17:07:09.275Z,77.39
2023-03-24T17:12:12.587Z,77.51
2023-03-24T17:17:15.716Z,77.54
2023-03-24T17:22:19.418Z,77.71
2023-03-24T17:27:22.638Z,77.96
2023-03-24T17:32:35.500Z,78.17
2023-03-24T17:37:38.673Z,78.28
2023-03-24T17:42:46.267Z,78.33
2023-03-24T17:47:49.869Z,78.46
2023-03-24T17:52:53.566Z,78.61
2023-03-24T17:57:56.845Z,78.88
2023-03-24T18:02:59.968Z,79.00
2023-03-24T18:08:04.259Z,79.00
2023-03-24T18:13:08.291Z,78.99
2023-03-24T18:18:12.323Z,78.97
2023-03-24T18:23:16.571Z,78.95
2023-03-24T18:28:19.973Z,78.82
2023-03-24T18:33:24.754Z,78.67
2023-03-24T18:38:28.140Z,78.67
2023-03-24T18:43:41.132Z,78.75
2023-03-24T18:48:45.094Z,78.92
2023-03-24T18:53:49.316Z,79.10
2023-03-24T18:58:53.052Z,77.79
2023-03-24T19:03:56.602Z,76.50
2023-03-24T19:09:00.002Z,76.46
2023-03-24T19:14:04.225Z,75.97
2023-03-24T19:19:08.245Z,76.53
2023-03-24T19:24:12.574Z,77.02
2023-03-24T19:29:16.083Z,78.93
2023-03-24T19:34:19.399Z,80.51
2023-03-24T19:39:24.351Z,81.10
2023-03-24T19:44:27.688Z,81.49
2023-03-24T19:49:31.597Z,81.75
2023-03-24T19:54:34.813Z,81.71
2023-03-24T19:59:38.110Z,82.04
2023-03-24T20:04:41.834Z,82.15
2023-03-24T20:09:45.668Z,82.03
2023-03-24T20:14:48.893Z,81.77
2023-03-24T20:19:52.283Z,81.90
2023-03-24T20:24:56.204Z,81.75
2023-03-24T20:29:59.300Z,81.93
2023-03-24T20:35:05.614Z,82.16
2023-03-24T20:40:10.067Z,82.03
2023-03-24T20:45:13.451Z,82.37
2023-03-24T20:50:16.983Z,82.28
2023-03-24T20:55:20.668Z,81.94
2023-03-24T21:00:24.610Z,82.12
2023-03-24T21:05:28.520Z,82.29
2023-03-24T21:10:34.497Z,82.40
2023-03-24T21:15:45.115Z,82.39
2023-03-24T21:20:56.451Z,82.32
2023-03-24T21:26:00.196Z,82.33
2023-03-24T21:31:11.005Z,82.11
2023-03-24T21:36:14.832Z,82.14
2023-03-24T21:41:19.802Z,82.08
2023-03-24T21:46:27.208Z,82.21
2023-03-24T21:51:34.440Z,82.01
2023-03-24T21:56:38.456Z,81.82
2023-03-24T22:01:42.335Z,81.78
2023-03-24T22:06:47.980Z,81.65
2023-03-24T22:11:53.264Z,81.46
2023-03-24T22:16:56.573Z,81.31
2023-03-24T22:22:02.267Z,81.44
2023-03-24T22:27:05.467Z,81.70
2023-03-24T22:32:08.656Z,81.82
2023-03-24T22:37:11.842Z,81.84
2023-03-24T22:42:16.167Z,81.78
2023-03-24T22:47:19.289Z,81.89
2023-03-24T22:52:22.406Z,82.04
2023-03-24T22:57:25.623Z,82.09
2023-03-24T23:02:29.331Z,82.25
2023-03-24T23:07:32.948Z,82.57
2023-03-24T23:12:37.563Z,82.82
2023-03-24T23:17:42.673Z,82.79
2023-03-24T23:22:48.808Z,83.08
2023-03-24T23:27:52.733Z,82.96
2023-03-24T23:32:57.603Z,83.43
2023-03-24T23:38:02.537Z,83.75
2023-03-24T23:43:05.765Z,83.64
2023-03-24T23:48:09.078Z,84.03
2023-03-24T23:53:12.174Z,84.03
2023-03-24T23:58:15.500Z,83.88
